Time;durP1;ratioP1;P1;durP2;ratioP2;P2;SDS_P1;SDS_P2;PMS_P1;PMS_P2;Temp;Humidity;BMP_temperature;BMP_pressure;BME280_temperature;BME280_humidity;BME280_pressure;Samples;Min_cycle;Max_cycle;Signal;HPM_P1;HPM_P2
2023/03/09 00:00:46;;;;;;;18.00;14.00;;;2.10;99.90;;;;;;5027316;28;20057;-71
2023/03/09 00:03:15;;;;;;;18.45;14.10;;;2.10;99.90;;;;;;5026941;28;20064;-71
2023/03/09 00:05:55;;;;;;;17.60;13.70;;;2.10;99.90;;;;;;5025202;28;20052;-71
2023/03/09 00:08:21;;;;;;;17.17;12.75;;;2.10;99.90;;;;;;5026505;28;20518;-71
2023/03/09 00:10:51;;;;;;;15.63;12.55;;;2.10;99.90;;;;;;5027468;28;20055;-71
2023/03/09 00:13:18;;;;;;;16.38;13.52;;;2.10;99.90;;;;;;5034393;28;20104;-71
2023/03/09 00:15:49;;;;;;;18.37;13.53;;;2.00;99.90;;;;;;5027871;28;20511;-71
2023/03/09 00:18:18;;;;;;;18.75;14.30;;;2.10;99.90;;;;;;5034363;28;20304;-71
2023/03/09 00:20:44;;;;;;;18.63;14.40;;;2.00;99.90;;;;;;5027703;28;20116;-71
2023/03/09 00:23:11;;;;;;;19.70;14.70;;;2.00;99.90;;;;;;5027808;28;20112;-71
2023/03/09 00:25:37;;;;;;;18.38;14.18;;;2.00;99.90;;;;;;5028451;28;20042;-71
2023/03/09 00:28:03;;;;;;;20.92;14.82;;;2.00;99.90;;;;;;5024752;28;20080;-71
2023/03/09 00:30:29;;;;;;;19.83;13.85;;;2.00;99.90;;;;;;5031691;28;20443;-71
2023/03/09 00:32:55;;;;;;;18.58;14.65;;;2.00;99.90;;;;;;5020793;28;20132;-71
2023/03/09 00:35:20;;;;;;;17.85;14.10;;;2.00;99.90;;;;;;5028076;28;20115;-71
2023/03/09 00:37:46;;;;;;;18.00;14.27;;;2.00;99.90;;;;;;5029729;28;20045;-71
2023/03/09 00:40:14;;;;;;;17.15;13.15;;;2.00;99.90;;;;;;5025758;28;20042;-70
2023/03/09 00:42:43;;;;;;;18.17;14.15;;;2.00;99.90;;;;;;5021485;28;20461;-70
2023/03/09 00:45:09;;;;;;;19.40;14.13;;;1.90;99.90;;;;;;5030199;28;20047;-70
2023/03/09 00:47:35;;;;;;;17.35;14.00;;;1.90;99.90;;;;;;5027472;28;20060;-70
2023/03/09 00:50:01;;;;;;;18.88;13.95;;;1.90;99.90;;;;;;5026148;28;20037;-70
2023/03/09 00:52:27;;;;;;;19.08;13.48;;;1.90;99.90;;;;;;5029147;28;20084;-70
2023/03/09 00:54:53;;;;;;;19.20;14.10;;;1.80;99.90;;;;;;5031153;28;20562;-70
2023/03/09 00:57:22;;;;;;;19.63;14.45;;;1.80;99.90;;;;;;5027571;28;20049;-70
2023/03/09 00:59:50;;;;;;;16.58;13.40;;;1.80;99.90;;;;;;5031644;28;20058;-71
2023/03/09 01:02:20;;;;;;;19.13;14.45;;;1.80;99.90;;;;;;5032719;28;20042;-70
2023/03/09 01:04:47;;;;;;;20.63;15.10;;;1.80;99.90;;;;;;5027906;28;20045;-70
2023/03/09 01:07:13;;;;;;;19.88;14.93;;;1.80;99.90;;;;;;5032506;28;20069;-70
2023/03/09 01:09:40;;;;;;;20.40;14.65;;;1.80;99.90;;;;;;5031293;28;20083;-70
2023/03/09 01:12:06;;;;;;;19.20;15.03;;;1.70;99.90;;;;;;5029935;28;20056;-70
2023/03/09 01:14:32;;;;;;;20.48;14.80;;;1.70;99.90;;;;;;5031741;28;20125;-70
2023/03/09 01:16:58;;;;;;;19.50;14.20;;;1.70;99.90;;;;;;5027123;28;20104;-70
2023/03/09 01:19:24;;;;;;;19.88;14.43;;;1.70;99.90;;;;;;5029039;28;20045;-71
2023/03/09 01:21:50;;;;;;;19.17;14.73;;;1.70;99.90;;;;;;5030424;28;20506;-71
2023/03/09 01:24:16;;;;;;;20.05;15.45;;;1.70;99.90;;;;;;5028408;28;20630;-70
2023/03/09 01:26:41;;;;;;;19.67;14.70;;;1.70;99.90;;;;;;5029423;28;20128;-70
2023/03/09 01:29:07;;;;;;;20.80;15.55;;;1.60;99.90;;;;;;5029382;28;20049;-70
2023/03/09 01:31:33;;;;;;;21.05;15.48;;;1.60;99.90;;;;;;5028459;28;20041;-70
2023/03/09 01:33:58;;;;;;;22.35;16.10;;;1.60;99.90;;;;;;5029312;28;20485;-70
2023/03/09 01:36:24;;;;;;;21.23;15.68;;;1.60;99.90;;;;;;5029205;28;20388;-70
2023/03/09 01:38:50;;;;;;;20.55;16.08;;;1.60;99.90;;;;;;5027367;28;20094;-70
2023/03/09 01:41:17;;;;;;;21.88;16.33;;;1.60;99.90;;;;;;5027524;28;20049;-70
2023/03/09 01:43:52;;;;;;;;;;;1.60;99.90;;;;;;5031006;28;20034;-70
2023/03/09 01:46:39;;;;;;;24.15;18.33;;;1.50;99.90;;;;;;5025687;28;19924;-70
2023/03/09 01:49:13;;;;;;;22.77;17.87;;;1.50;99.90;;;;;;5030523;28;20092;-70
2023/03/09 01:51:56;;;;;;;23.05;17.55;;;1.50;99.90;;;;;;5028450;28;20053;-70
2023/03/09 01:54:36;;;;;;;22.92;17.40;;;1.50;99.90;;;;;;5022200;28;20037;-70
2023/03/09 01:57:29;;;;;;;21.85;16.63;;;1.50;99.90;;;;;;5020849;28;20140;-70
2023/03/09 01:59:59;;;;;;;23.80;17.05;;;1.50;99.90;;;;;;5018430;28;20049;-70
2023/03/09 02:02:29;;;;;;;21.40;17.00;;;1.50;99.90;;;;;;5029680;28;20049;-70
2023/03/09 02:04:58;;;;;;;21.90;17.10;;;1.50;99.90;;;;;;5027512;28;20471;-70
2023/03/09 02:07:26;;;;;;;23.55;17.13;;;1.50;99.90;;;;;;5031470;28;20041;-70
2023/03/09 02:09:58;;;;;;;21.15;16.23;;;1.50;99.90;;;;;;5031733;28;20460;-70
2023/03/09 02:12:24;;;;;;;21.20;16.50;;;1.50;99.90;;;;;;5032093;28;20060;-71
2023/03/09 02:14:51;;;;;;;21.10;16.33;;;1.50;99.90;;;;;;5025216;28;20392;-70
2023/03/09 02:17:17;;;;;;;19.60;15.68;;;1.50;99.90;;;;;;5020361;28;20033;-70
2023/03/09 02:20:06;;;;;;;22.35;15.70;;;1.50;99.90;;;;;;5027956;28;20067;-70
2023/03/09 02:22:36;;;;;;;20.33;15.88;;;1.50;99.90;;;;;;5028455;28;20045;-70
2023/03/09 02:25:26;;;;;;;21.08;16.65;;;1.50;99.90;;;;;;5026566;28;20050;-69
2023/03/09 02:27:52;;;;;;;26.88;15.75;;;1.50;99.90;;;;;;5022171;28;20049;-70
2023/03/09 02:30:18;;;;;;;22.48;16.02;;;1.50;99.90;;;;;;5029147;28;20410;-70
2023/03/09 02:32:46;;;;;;;19.80;16.02;;;1.50;99.90;;;;;;5024813;28;20080;-70
2023/03/09 02:35:12;;;;;;;20.80;16.13;;;1.50;99.90;;;;;;5028351;28;20065;-71
2023/03/09 02:37:39;;;;;;;21.15;15.95;;;1.50;99.90;;;;;;5025130;28;20467;-71
2023/03/09 02:40:05;;;;;;;22.92;16.10;;;1.50;99.90;;;;;;5026942;28;20095;-70
2023/03/09 02:42:31;;;;;;;20.55;16.25;;;1.50;99.90;;;;;;5026414;28;20050;-70
2023/03/09 02:44:58;;;;;;;22.85;17.23;;;1.50;99.90;;;;;;5023865;28;20041;-70
2023/03/09 02:47:24;;;;;;;24.55;17.92;;;1.50;99.90;;;;;;5019467;28;20056;-70
2023/03/09 02:49:50;;;;;;;23.00;17.52;;;1.50;99.90;;;;;;5027876;28;20037;-70
2023/03/09 02:52:16;;;;;;;25.90;18.65;;;1.50;99.90;;;;;;5026832;28;20041;-70
2023/03/09 02:54:41;;;;;;;28.75;18.98;;;1.50;99.90;;;;;;5024010;28;20088;-70
2023/03/09 02:57:07;;;;;;;23.30;17.50;;;1.50;99.90;;;;;;5020325;28;20124;-70
2023/03/09 02:59:33;;;;;;;26.65;19.00;;;1.50;99.90;;;;;;5015215;28;20061;-70
2023/03/09 03:01:59;;;;;;;26.83;19.10;;;1.50;99.90;;;;;;5019391;28;20095;-70
2023/03/09 03:04:24;;;;;;;26.27;19.23;;;1.50;99.90;;;;;;5019842;28;20050;-70
2023/03/09 03:06:50;;;;;;;27.35;19.38;;;1.50;99.90;;;;;;5017948;28;20037;-70
2023/03/09 03:09:16;;;;;;;25.58;18.52;;;1.50;99.90;;;;;;5029691;28;20456;-70
2023/03/09 03:11:41;;;;;;;25.85;19.65;;;1.50;99.90;;;;;;5024285;28;20073;-70
2023/03/09 03:14:07;;;;;;;27.65;19.50;;;1.50;99.90;;;;;;5022075;28;20060;-70
2023/03/09 03:16:34;;;;;;;28.27;19.98;;;1.50;99.90;;;;;;5028181;28;20072;-70
2023/03/09 03:18:59;;;;;;;25.30;18.87;;;1.60;99.90;;;;;;5028224;28;20049;-70
2023/03/09 03:21:25;;;;;;;26.05;19.52;;;1.60;99.90;;;;;;5017404;28;20053;-70
2023/03/09 03:23:54;;;;;;;28.63;20.60;;;1.60;99.90;;;;;;5010062;28;20096;-70
2023/03/09 03:26:20;;;;;;;29.35;21.60;;;1.60;99.90;;;;;;5025849;28;20053;-70
2023/03/09 03:28:45;;;;;;;28.13;20.45;;;1.60;99.90;;;;;;5026424;28;20115;-70
2023/03/09 03:31:11;;;;;;;29.70;21.42;;;1.60;99.90;;;;;;5026207;28;20404;-70
2023/03/09 03:33:38;;;;;;;28.55;20.65;;;1.60;99.90;;;;;;5029756;28;20128;-70
2023/03/09 03:36:03;;;;;;;28.25;21.85;;;1.60;99.90;;;;;;5021657;28;20041;-70
2023/03/09 03:38:29;;;;;;;31.08;23.00;;;1.60;99.90;;;;;;5030278;28;20087;-70
2023/03/09 03:40:55;;;;;;;30.40;21.92;;;1.60;99.90;;;;;;5023328;28;20499;-69
2023/03/09 03:43:21;;;;;;;35.67;24.38;;;1.60;99.90;;;;;;5020733;28;20401;-70
2023/03/09 03:45:46;;;;;;;30.38;23.35;;;1.60;99.90;;;;;;5028190;28;20053;-70
2023/03/09 03:48:12;;;;;;;33.28;23.27;;;1.60;99.90;;;;;;5029031;28;20068;-70
2023/03/09 03:50:38;;;;;;;30.63;23.02;;;1.60;99.90;;;;;;5029724;28;20079;-70
2023/03/09 03:53:04;;;;;;;31.30;23.17;;;1.60;99.90;;;;;;5018079;28;20038;-70
2023/03/09 03:55:30;;;;;;;33.35;23.58;;;1.60;99.90;;;;;;5022456;28;20600;-70
2023/03/09 03:57:55;;;;;;;30.70;23.10;;;1.60;99.90;;;;;;5020457;28;20065;-70
2023/03/09 04:00:22;;;;;;;33.80;23.15;;;1.60;99.90;;;;;;5031456;28;20068;-70
2023/03/09 04:02:48;;;;;;;33.10;24.00;;;1.60;99.90;;;;;;5034027;28;20046;-70
2023/03/09 04:05:14;;;;;;;31.92;22.88;;;1.60;99.90;;;;;;5032576;28;20041;-70
2023/03/09 04:07:39;;;;;;;33.05;23.85;;;1.60;99.90;;;;;;5031890;28;20049;-70
2023/03/09 04:10:06;;;;;;;33.05;23.83;;;1.60;99.90;;;;;;5029660;28;20050;-70
2023/03/09 04:12:31;;;;;;;31.10;23.02;;;1.60;99.90;;;;;;5026326;28;20541;-70
2023/03/09 04:14:57;;;;;;;30.27;22.58;;;1.60;99.90;;;;;;5032251;28;20130;-70
2023/03/09 04:17:22;;;;;;;32.45;22.75;;;1.60;99.90;;;;;;5027683;28;20086;-70
2023/03/09 04:19:48;;;;;;;32.85;22.90;;;1.60;99.90;;;;;;5032366;28;20120;-71
2023/03/09 04:22:14;;;;;;;29.67;21.92;;;1.60;99.90;;;;;;5030106;28;20045;-70
2023/03/09 04:24:39;;;;;;;29.90;21.27;;;1.60;99.90;;;;;;5030585;28;20056;-70
2023/03/09 04:27:05;;;;;;;33.53;23.02;;;1.60;99.90;;;;;;5024718;28;20591;-70
2023/03/09 04:29:31;;;;;;;34.80;23.52;;;1.60;99.90;;;;;;5032393;28;20049;-70
2023/03/09 04:31:56;;;;;;;32.78;24.02;;;1.50;99.90;;;;;;5026926;28;20101;-69
2023/03/09 04:34:25;;;;;;;31.50;23.42;;;1.60;99.90;;;;;;5025995;28;20040;-70
2023/03/09 04:36:51;;;;;;;33.50;24.63;;;1.60;99.90;;;;;;5020571;28;20038;-69
2023/03/09 04:39:16;;;;;;;32.55;22.60;;;1.60;99.90;;;;;;5031718;28;20068;-70
2023/03/09 04:41:42;;;;;;;34.67;24.27;;;1.60;99.90;;;;;;5024404;28;20384;-70
2023/03/09 04:44:08;;;;;;;31.60;22.98;;;1.60;99.90;;;;;;5024463;28;20038;-70
2023/03/09 04:46:33;;;;;;;31.55;23.27;;;1.60;99.90;;;;;;5026855;28;20049;-70
2023/03/09 04:48:59;;;;;;;30.83;22.63;;;1.60;99.90;;;;;;5029807;28;20052;-70
2023/03/09 04:51:25;;;;;;;28.83;21.33;;;1.60;99.90;;;;;;5025076;28;20046;-70
2023/03/09 04:53:50;;;;;;;29.02;20.85;;;1.60;99.90;;;;;;5020310;28;20034;-69
2023/03/09 04:56:16;;;;;;;29.70;21.52;;;1.70;99.90;;;;;;5027535;28;20041;-70
2023/03/09 04:58:42;;;;;;;30.80;21.52;;;1.60;99.90;;;;;;5027258;28;20477;-70
2023/03/09 05:01:08;;;;;;;28.08;21.13;;;1.60;99.90;;;;;;5022690;28;20426;-69
2023/03/09 05:03:33;;;;;;;28.85;20.83;;;1.60;99.90;;;;;;5026261;28;20048;-70
2023/03/09 05:05:59;;;;;;;26.23;19.27;;;1.50;99.90;;;;;;5022921;28;20100;-69
2023/03/09 05:08:25;;;;;;;28.60;20.75;;;1.60;99.90;;;;;;5030776;28;20051;-70
2023/03/09 05:10:53;;;;;;;28.52;22.05;;;1.60;99.90;;;;;;5023218;28;20068;-70
2023/03/09 05:13:19;;;;;;;30.35;21.65;;;1.50;99.90;;;;;;5025266;28;20047;-70
2023/03/09 05:15:44;;;;;;;31.42;22.17;;;1.50;99.90;;;;;;5024151;28;20045;-70
2023/03/09 05:18:11;;;;;;;31.17;22.42;;;1.50;99.90;;;;;;5017462;28;20089;-70
2023/03/09 05:20:38;;;;;;;32.50;22.00;;;1.50;99.90;;;;;;5024179;28;20041;-70
2023/03/09 05:23:04;;;;;;;34.83;23.40;;;1.50;99.90;;;;;;5031458;28;20052;-70
2023/03/09 05:25:30;;;;;;;32.63;22.77;;;1.50;99.90;;;;;;5022030;28;20435;-70
2023/03/09 05:27:56;;;;;;;35.95;24.35;;;1.50;99.90;;;;;;5032578;28;20084;-70
2023/03/09 05:30:22;;;;;;;36.75;24.08;;;1.50;99.90;;;;;;5029926;28;20047;-70
2023/03/09 05:32:49;;;;;;;37.03;23.67;;;1.50;99.90;;;;;;5022769;28;20133;-70
2023/03/09 05:35:16;;;;;;;34.70;23.15;;;1.50;99.90;;;;;;5028092;28;20116;-70
2023/03/09 05:37:43;;;;;;;36.45;24.10;;;1.50;99.90;;;;;;5027285;28;20048;-70
2023/03/09 05:40:10;;;;;;;32.10;23.03;;;1.50;99.90;;;;;;5025095;28;20688;-70
2023/03/09 05:42:36;;;;;;;31.83;22.15;;;1.50;99.90;;;;;;5031452;28;20082;-69
2023/03/09 05:45:04;;;;;;;31.88;22.80;;;1.50;99.90;;;;;;5023722;28;20448;-70
2023/03/09 05:47:29;;;;;;;;;;;1.50;99.90;;;;;;5028585;28;20037;-70
2023/03/09 05:49:55;;;;;;;32.58;22.85;;;1.50;99.90;;;;;;5027710;28;19974;-69
2023/03/09 05:52:21;;;;;;;35.63;23.65;;;1.50;99.90;;;;;;5027921;28;20046;-70
2023/03/09 05:54:46;;;;;;;34.92;23.83;;;1.50;99.90;;;;;;5029142;28;20511;-70
2023/03/09 05:57:12;;;;;;;33.05;23.13;;;1.50;99.90;;;;;;5022251;28;20091;-70
2023/03/09 05:59:38;;;;;;;33.03;23.63;;;1.50;99.90;;;;;;5021052;28;20136;-70
2023/03/09 06:02:04;;;;;;;37.58;24.80;;;1.50;99.90;;;;;;5027395;28;20626;-70
2023/03/09 06:04:30;;;;;;;37.42;26.25;;;1.50;99.90;;;;;;5023083;28;20143;-70
2023/03/09 06:06:56;;;;;;;37.08;24.98;;;1.50;99.90;;;;;;5021573;28;20052;-70
2023/03/09 06:09:22;;;;;;;39.30;27.27;;;1.50;99.90;;;;;;5026931;28;21125;-70
2023/03/09 06:11:47;;;;;;;37.80;25.10;;;1.50;99.90;;;;;;5029916;28;20476;-70
2023/03/09 06:14:13;;;;;;;39.63;27.40;;;1.50;99.90;;;;;;5023314;28;20077;-70
2023/03/09 06:16:39;;;;;;;35.97;24.65;;;1.50;99.90;;;;;;5022312;28;20083;-70
2023/03/09 06:19:05;;;;;;;37.75;25.63;;;1.50;99.90;;;;;;5024567;28;20049;-70
2023/03/09 06:21:30;;;;;;;32.22;23.27;;;1.50;99.90;;;;;;5027182;28;20040;-70
2023/03/09 06:23:57;;;;;;;34.70;23.98;;;1.50;99.90;;;;;;5026725;28;20107;-70
2023/03/09 06:26:24;;;;;;;38.63;24.60;;;1.50;99.90;;;;;;5019196;28;20099;-70
2023/03/09 06:28:49;;;;;;;31.70;23.00;;;1.60;99.90;;;;;;5016849;28;20304;-70
2023/03/09 06:31:18;;;;;;;30.52;22.52;;;1.60;99.90;;;;;;5018475;28;20504;-70
2023/03/09 06:33:46;;;;;;;31.42;23.33;;;1.60;99.90;;;;;;5025956;28;20041;-70
2023/03/09 06:36:12;;;;;;;;;;;1.60;99.90;;;;;;5025368;28;20168;-70
2023/03/09 06:38:38;;;;;;;34.92;24.27;;;1.60;99.90;;;;;;5019101;28;19948;-70
2023/03/09 06:41:04;;;;;;;33.35;23.95;;;1.60;99.90;;;;;;5014674;28;20132;-71
2023/03/09 06:43:30;;;;;;;33.78;23.20;;;1.60;99.90;;;;;;5028846;28;20124;-70
2023/03/09 06:45:56;;;;;;;34.15;23.65;;;1.60;99.90;;;;;;5023568;28;20501;-70
2023/03/09 06:48:22;;;;;;;34.47;24.95;;;1.60;99.90;;;;;;5021015;28;20124;-70
2023/03/09 06:50:51;;;;;;;34.40;24.70;;;1.60;99.90;;;;;;5023318;28;20052;-70
2023/03/09 06:53:18;;;;;;;32.72;23.50;;;1.70;99.90;;;;;;5025102;28;20044;-70
2023/03/09 06:55:44;;;;;;;31.73;23.27;;;1.70;99.90;;;;;;5013174;28;20053;-70
2023/03/09 06:58:10;;;;;;;33.53;23.45;;;1.70;99.90;;;;;;5024280;28;20045;-71
2023/03/09 07:00:40;;;;;;;33.85;23.63;;;1.70;99.90;;;;;;5026427;28;20634;-71
2023/03/09 07:03:12;;;;;;;31.58;22.73;;;1.70;99.90;;;;;;5014630;28;20053;-70
2023/03/09 07:05:38;;;;;;;33.08;23.63;;;1.70;99.90;;;;;;5027721;28;20053;-71
2023/03/09 07:08:04;;;;;;;32.75;22.85;;;1.70;99.90;;;;;;5022985;28;20091;-70
2023/03/09 07:10:29;;;;;;;33.25;23.42;;;1.70;99.90;;;;;;5016181;28;20511;-70
2023/03/09 07:12:55;;;;;;;30.83;22.17;;;1.70;99.90;;;;;;5024113;28;20085;-70
2023/03/09 07:15:20;;;;;;;31.85;23.73;;;1.70;99.90;;;;;;5027590;28;20049;-70
2023/03/09 07:17:46;;;;;;;31.15;22.33;;;1.70;99.90;;;;;;5025433;28;20132;-71
2023/03/09 07:20:12;;;;;;;29.58;20.80;;;1.80;99.90;;;;;;5027433;28;20500;-71
2023/03/09 07:22:38;;;;;;;29.52;21.95;;;1.70;99.90;;;;;;5028206;28;20411;-70
2023/03/09 07:25:04;;;;;;;30.60;22.75;;;1.80;99.90;;;;;;5022136;28;20049;-70
2023/03/09 07:27:30;;;;;;;31.00;23.00;;;1.80;99.90;;;;;;5017881;28;20046;-70
2023/03/09 07:29:57;;;;;;;28.60;20.83;;;1.80;99.90;;;;;;5026043;28;20072;-71
2023/03/09 07:32:23;;;;;;;31.45;22.15;;;1.90;99.90;;;;;;5025584;28;20571;-71
2023/03/09 07:34:49;;;;;;;31.15;22.17;;;1.90;99.90;;;;;;5024123;28;20180;-70
2023/03/09 07:37:15;;;;;;;29.00;21.52;;;1.90;99.90;;;;;;5029482;28;20056;-71
2023/03/09 07:39:41;;;;;;;33.38;24.13;;;1.90;99.90;;;;;;5032785;28;20140;-71
2023/03/09 07:42:07;;;;;;;29.23;21.50;;;2.00;99.90;;;;;;5027205;28;20053;-71
2023/03/09 07:44:41;;;;;;;31.65;23.02;;;2.00;99.90;;;;;;5028240;28;20049;-70
2023/03/09 07:47:07;;;;;;;29.75;21.98;;;2.00;99.90;;;;;;5030011;28;20115;-70
2023/03/09 07:49:33;;;;;;;31.88;22.55;;;2.00;99.90;;;;;;5026832;28;20445;-71
2023/03/09 07:51:58;;;;;;;32.03;22.55;;;2.10;99.90;;;;;;5029002;28;20128;-70
2023/03/09 07:54:24;;;;;;;30.65;22.40;;;2.10;99.90;;;;;;5029066;28;20037;-72
2023/03/09 07:56:51;;;;;;;34.92;24.52;;;2.10;99.90;;;;;;5029878;28;20046;-72
2023/03/09 07:59:18;;;;;;;31.10;23.20;;;2.10;99.90;;;;;;5031152;28;20045;-71
2023/03/09 08:01:43;;;;;;;30.10;22.10;;;2.10;99.90;;;;;;5029109;28;20041;-71
2023/03/09 08:04:09;;;;;;;30.83;22.20;;;2.20;99.90;;;;;;5030717;28;20068;-71
2023/03/09 08:06:39;;;;;;;31.80;23.10;;;2.20;99.90;;;;;;5021575;28;20046;-70
2023/03/09 08:09:06;;;;;;;30.40;23.23;;;2.20;99.90;;;;;;5025774;28;20045;-71
2023/03/09 08:11:35;;;;;;;30.88;23.13;;;2.30;99.90;;;;;;5028169;28;20040;-71
2023/03/09 08:14:01;;;;;;;30.10;22.20;;;2.30;99.90;;;;;;5048642;28;20125;-71
2023/03/09 08:16:27;;;;;;;32.10;24.10;;;2.30;99.90;;;;;;5033471;28;20054;-71
2023/03/09 08:18:53;;;;;;;31.23;23.52;;;2.30;99.90;;;;;;5031739;28;20117;-70
2023/03/09 08:21:21;;;;;;;31.00;23.40;;;2.40;99.90;;;;;;5031668;28;20057;-70
2023/03/09 08:23:47;;;;;;;30.10;22.20;;;2.40;99.90;;;;;;5029538;28;20043;-70
2023/03/09 08:26:16;;;;;;;30.48;22.92;;;2.40;99.90;;;;;;5033337;28;20102;-70
2023/03/09 08:28:43;;;;;;;29.60;22.50;;;2.40;99.90;;;;;;5031815;28;20037;-70
2023/03/09 08:31:11;;;;;;;30.25;23.33;;;2.40;99.90;;;;;;5032388;28;20037;-70
2023/03/09 08:33:36;;;;;;;30.92;22.80;;;2.40;99.90;;;;;;5030419;28;20061;-69
2023/03/09 08:36:15;;;;;;;30.60;23.75;;;2.40;99.90;;;;;;5025286;28;20389;-70
2023/03/09 08:38:42;;;;;;;30.50;22.60;;;2.40;99.90;;;;;;5033322;28;20033;-70
2023/03/09 08:41:08;;;;;;;31.98;24.05;;;2.50;99.90;;;;;;5022836;28;20073;-70
2023/03/09 08:43:33;;;;;;;30.52;22.98;;;2.50;99.90;;;;;;5023967;28;20473;-67
2023/03/09 08:45:59;;;;;;;30.10;23.08;;;2.50;99.90;;;;;;5050905;28;20056;-68
2023/03/09 08:48:25;;;;;;;30.10;22.30;;;2.50;99.90;;;;;;5032945;28;20042;-69
2023/03/09 08:50:50;;;;;;;29.58;23.27;;;2.60;99.90;;;;;;5051844;28;20460;-68
2023/03/09 08:53:18;;;;;;;33.50;23.83;;;2.70;99.90;;;;;;5043008;28;20138;-69
2023/03/09 08:55:46;;;;;;;30.17;23.13;;;2.70;99.90;;;;;;5031978;28;20400;-69
2023/03/09 08:58:12;;;;;;;30.70;23.17;;;2.80;99.90;;;;;;5032472;28;20038;-70
2023/03/09 09:00:38;;;;;;;32.20;23.27;;;2.70;99.90;;;;;;5029217;28;20053;-68
2023/03/09 09:03:04;;;;;;;30.13;22.63;;;2.80;99.90;;;;;;5029672;28;20091;-69
2023/03/09 09:05:30;;;;;;;30.90;23.92;;;2.90;99.90;;;;;;5023385;28;20046;-68
2023/03/09 09:07:55;;;;;;;29.38;22.65;;;2.90;99.90;;;;;;5028760;28;20586;-69
2023/03/09 09:10:21;;;;;;;29.30;22.60;;;2.80;99.90;;;;;;5026931;28;20060;-67
2023/03/09 09:12:47;;;;;;;28.02;22.15;;;3.00;99.90;;;;;;5029904;28;20095;-70
2023/03/09 09:15:15;;;;;;;29.73;22.70;;;3.00;99.90;;;;;;5028417;28;20038;-69
2023/03/09 09:17:41;;;;;;;29.95;24.05;;;3.00;99.90;;;;;;5031018;28;20112;-69
2023/03/09 09:20:08;;;;;;;30.55;26.55;;;3.00;99.90;;;;;;5027587;28;20107;-69
2023/03/09 09:22:34;;;;;;;28.25;22.73;;;3.10;99.90;;;;;;5023271;28;20034;-69
2023/03/09 09:25:00;;;;;;;29.70;22.15;;;3.10;99.90;;;;;;5025342;28;20033;-70
2023/03/09 09:27:26;;;;;;;27.75;22.35;;;3.10;99.90;;;;;;5031940;28;20420;-70
2023/03/09 09:29:56;;;;;;;29.20;25.93;;;3.10;99.90;;;;;;5027372;28;20046;-71
2023/03/09 09:32:21;;;;;;;28.77;24.00;;;3.10;99.90;;;;;;5022769;28;20041;-70
2023/03/09 09:34:48;;;;;;;29.35;23.65;;;3.10;99.90;;;;;;5021884;28;20042;-70
2023/03/09 09:37:15;;;;;;;29.92;24.02;;;3.10;99.90;;;;;;5018258;28;20493;-69
2023/03/09 09:39:40;;;;;;;31.20;24.80;;;3.20;99.90;;;;;;5024003;28;20374;-70
2023/03/09 09:42:23;;;;;;;28.10;22.15;;;3.20;99.90;;;;;;5025127;28;20049;-69
2023/03/09 09:44:53;;;;;;;28.05;23.67;;;3.20;99.90;;;;;;5031259;28;20037;-69
2023/03/09 09:47:24;;;;;;;29.10;24.30;;;3.20;99.90;;;;;;5031190;28;20042;-69
2023/03/09 09:49:54;;;;;;;28.88;22.15;;;3.30;99.90;;;;;;5025567;28;20444;-69
2023/03/09 09:52:22;;;;;;;32.00;24.67;;;3.20;99.90;;;;;;5033841;28;20050;-69
2023/03/09 09:54:54;;;;;;;30.42;24.10;;;3.20;99.90;;;;;;5018133;28;20144;-68
2023/03/09 09:57:27;;;;;;;28.60;21.85;;;3.20;99.90;;;;;;5014144;28;20393;-68
2023/03/09 10:00:11;;;;;;;28.33;22.15;;;3.20;99.90;;;;;;5014072;28;20103;-69
2023/03/09 10:02:46;;;;;;;32.17;25.63;;;3.20;99.90;;;;;;5020265;28;20042;-71
2023/03/09 10:05:40;;;;;;;31.45;24.33;;;3.10;99.90;;;;;;5016317;28;20049;-72
2023/03/09 10:08:36;;;;;;;29.40;23.63;;;3.20;99.90;;;;;;5019061;28;20050;-68
2023/03/09 10:11:28;;;;;;;27.25;20.85;;;3.20;99.90;;;;;;5031645;28;20049;-69
2023/03/09 10:14:28;;;;;;;29.45;23.20;;;3.30;99.90;;;;;;5020514;28;20033;-69
2023/03/09 10:17:16;;;;;;;27.52;22.42;;;3.30;99.90;;;;;;4985994;28;20057;-68
2023/03/09 10:19:42;;;;;;;28.33;22.70;;;3.30;99.90;;;;;;5014990;28;20095;-69
2023/03/09 10:22:27;;;;;;;29.65;23.40;;;3.30;99.90;;;;;;5016122;28;20049;-69
2023/03/09 10:24:54;;;;;;;29.25;22.52;;;3.40;99.90;;;;;;5026203;28;20041;-70
2023/03/09 10:27:47;;;;;;;30.58;25.77;;;3.40;99.90;;;;;;5015202;28;20124;-70
2023/03/09 10:30:12;;;;;;;28.08;22.17;;;3.50;99.90;;;;;;5022738;28;20045;-74
2023/03/09 10:32:58;;;;;;;28.02;23.30;;;3.50;99.90;;;;;;5019058;28;20605;-72
2023/03/09 10:36:00;;;;;;;29.15;24.13;;;3.50;99.90;;;;;;5027368;28;20050;-70
2023/03/09 10:38:26;;;;;;;29.20;22.67;;;3.50;99.90;;;;;;5028994;28;20508;-71
2023/03/09 10:40:55;;;;;;;28.17;23.77;;;3.50;99.90;;;;;;5024112;28;20037;-71
2023/03/09 10:43:35;;;;;;;27.67;23.38;;;3.50;99.90;;;;;;5028425;28;20077;-71
2023/03/09 10:46:19;;;;;;;29.90;24.48;;;3.60;99.90;;;;;;5017259;28;20512;-70
2023/03/09 10:48:46;;;;;;;31.00;24.08;;;3.50;99.90;;;;;;5010552;28;20048;-71
2023/03/09 10:51:24;;;;;;;30.48;25.70;;;3.50;99.90;;;;;;5011474;28;20050;-71
2023/03/09 10:53:52;;;;;;;31.08;24.17;;;3.50;99.90;;;;;;5015860;28;20369;-71
2023/03/09 10:56:29;;;;;;;32.05;26.63;;;3.60;99.90;;;;;;5013255;28;20653;-70
2023/03/09 10:59:06;;;;;;;;;;;3.50;99.90;;;;;;5029483;28;20045;-69
2023/03/09 11:01:36;;;;;;;29.98;23.55;;;3.60;99.90;;;;;;5024841;28;19921;-70
2023/03/09 11:04:22;;;;;;;28.52;21.55;;;3.50;99.90;;;;;;5023291;28;20042;-69
2023/03/09 11:06:53;;;;;;;28.00;22.73;;;3.60;99.90;;;;;;5025796;28;20049;-67
2023/03/09 11:09:26;;;;;;;28.40;24.48;;;3.60;99.90;;;;;;5025476;28;20488;-69
2023/03/09 11:12:05;;;;;;;28.75;24.10;;;3.70;99.90;;;;;;5029462;28;20115;-68
2023/03/09 11:14:32;;;;;;;29.60;24.50;;;3.70;99.90;;;;;;5025946;28;20051;-69
2023/03/09 11:17:00;;;;;;;28.05;24.65;;;3.70;99.90;;;;;;5021281;28;20060;-68
2023/03/09 11:19:27;;;;;;;29.60;22.83;;;3.70;99.90;;;;;;5029696;28;20099;-69
2023/03/09 11:22:14;;;;;;;31.75;25.35;;;3.80;99.90;;;;;;5024429;28;20042;-67
2023/03/09 11:24:44;;;;;;;28.83;24.10;;;3.80;99.90;;;;;;5022095;28;20060;-71
2023/03/09 11:27:30;;;;;;;27.75;23.70;;;3.80;99.90;;;;;;5022888;28;20489;-70
2023/03/09 11:30:06;;;;;;;26.27;21.58;;;3.90;99.90;;;;;;5021366;28;20053;-68
2023/03/09 11:32:32;;;;;;;29.30;24.48;;;4.00;99.90;;;;;;5022079;28;20046;-68
2023/03/09 11:34:59;;;;;;;27.70;24.58;;;4.00;99.90;;;;;;5022953;28;20356;-69
2023/03/09 11:38:06;;;;;;;29.88;24.67;;;4.10;99.90;;;;;;5028739;28;20056;-68
2023/03/09 11:40:35;;;;;;;30.00;24.75;;;4.00;99.90;;;;;;5004673;28;20041;-69
2023/03/09 11:43:23;;;;;;;29.25;22.65;;;4.10;99.90;;;;;;5006305;28;20053;-67
2023/03/09 11:45:51;;;;;;;29.75;25.08;;;4.00;99.90;;;;;;5018843;28;20104;-67
2023/03/09 11:48:35;;;;;;;27.75;24.52;;;4.10;99.90;;;;;;5025222;28;20497;-67
2023/03/09 11:51:01;;;;;;;30.10;22.88;;;4.00;99.90;;;;;;5014564;28;20519;-67
2023/03/09 11:54:05;;;;;;;27.57;23.90;;;4.00;99.90;;;;;;5023348;28;20041;-67
2023/03/09 11:56:38;;;;;;;26.98;21.92;;;4.00;99.90;;;;;;5023485;28;20319;-66
2023/03/09 11:59:25;;;;;;;27.60;23.33;;;4.00;99.90;;;;;;5014702;28;20069;-68
2023/03/09 12:01:59;;;;;;;29.17;24.20;;;4.00;99.90;;;;;;5021575;28;20128;-67
2023/03/09 12:04:28;;;;;;;;;;;3.90;99.90;;;;;;5028746;28;20045;-67
2023/03/09 12:07:05;;;;;;;27.90;23.02;;;3.90;99.90;;;;;;5032080;28;19932;-68
2023/03/09 12:09:52;;;;;;;29.33;24.27;;;4.00;99.90;;;;;;5023400;28;20045;-67
2023/03/09 12:12:44;;;;;;;28.45;22.92;;;3.90;99.90;;;;;;5026381;28;20065;-67
2023/03/09 12:15:33;;;;;;;28.20;24.05;;;4.00;99.90;;;;;;5025157;28;20132;-67
2023/03/09 12:18:03;;;;;;;27.25;23.40;;;4.00;99.90;;;;;;5028611;28;20091;-68
2023/03/09 12:20:38;;;;;;;27.05;23.88;;;4.00;99.90;;;;;;5031766;28;20047;-68
2023/03/09 12:23:20;;;;;;;29.23;24.00;;;4.10;99.90;;;;;;5017664;28;20432;-67
2023/03/09 12:25:56;;;;;;;28.73;24.50;;;4.10;99.90;;;;;;5027810;28;20084;-69
2023/03/09 12:28:22;;;;;;;28.33;24.60;;;4.10;99.90;;;;;;5014567;28;20743;-69
2023/03/09 12:30:53;;;;;;;27.05;23.33;;;4.20;99.90;;;;;;5026332;28;20041;-69
2023/03/09 12:33:41;;;;;;;26.75;22.75;;;4.20;99.90;;;;;;5031808;28;20143;-69
2023/03/09 12:36:24;;;;;;;;;;;4.20;99.90;;;;;;5024344;28;20052;-68
2023/03/09 12:39:24;;;;;;;26.63;21.15;;;4.20;99.90;;;;;;5022407;28;19921;-68
2023/03/09 12:42:03;;;;;;;29.50;21.77;;;4.20;99.90;;;;;;5022193;28;20125;-68
2023/03/09 12:44:44;;;;;;;27.58;23.20;;;4.30;99.90;;;;;;5028386;28;20052;-69
2023/03/09 12:47:35;;;;;;;27.15;23.98;;;4.30;99.90;;;;;;5030926;28;20473;-70
2023/03/09 12:50:24;;;;;;;29.35;24.85;;;4.30;99.90;;;;;;5030197;28;20037;-70